ポートオブスペイン の空港の天気 - METARとTAF

ピアルコ国際空港(ポートオブスペイン) ( TTPP / POS ) - トリニダード・トバゴ ポートオブスペイン (トリニダード島)
飛行場実況気象(Metar)
観測時間02/17 18:00 AST (02/17 22:00 UTC)
風向・風速東 9m/s
視程10km以上
天気現象
少しの雲 雲底高度 550m
気温27℃
湿度70%
気圧1014hPa
METARTTPP 172200Z 10018KT 9999 FEW018 27/21 Q1014 NOSIG
過去の天気等 Google飛行場航空写真 Wunderground天気予報

過去48時間のMETAR

飛行場予報(TAF)
発表時間: 2/17 12:00 AST (2/17 16:00 UTC)
予報対象時間: 17日14時 AST ~ 18日14時 AST
風向・風速東南東 8m/s
視程10km以上
全天の4割程度の雲 雲底高度 670m
17日22時 AST ~ 18日1時 AST に徐々に
風向・風速静穏
少しの雲 雲底高度 490m
18日9時 AST ~ 18日11時 AST に徐々に
風向・風速東南東 8m/s
全天の4割程度の雲 雲底高度 610m
TAF TTPP 171600Z 1718/1818 11015KT 9999 SCT022
BECMG 1802/1805 00000KT FEW016
BECMG 1813/1815 12015KT SCT020